Saint Augusta, Minnesota
Current Conditions -  °F | °C
As of 10:35 PM on Friday 19 Dec 2014 (Local Time) from KMGG Reporting Station
Haze Haze  
Wind Chill: 25°   Ceiling: 800
Heat Index: 31°   Visibility: 5mi
Dew Point: 30°   Wind: 6mph
Humidity: 94%   Direction: 140°SE
Pressure: 30.14"   Gusts: NA
Location:  45.3547°N, 94.3058°W
Report Text: KMGG 200435Z AUTO 14005KT 5SM BR OVC008 00/M01 A3014 RMK AO2 T10051013
Loading
Personal Weather Stations






























Interactive Weather Map New forecast layout! Learn more

10-Day Weather Forecast

Advertisements
Track Severe Weather on mobile